< < Back
Terminal Aerodrome Forecast


Current Version              Previous Versions:   1  2  3  4  5  6  7  8  9  

Terminal Aerodrome Forecast

070
FTUS44 KMRX 250520
TAFCHA
TAF
KCHA 250520Z 2506/2606 00000KT P6SM SKC
     FM251400 VRB03KT P6SM SKC
     FM252000 22004KT P6SM BKN050=

Latest METAR

190
SAUS80 KWBC 250800
MTRCHA
METAR KCHA 250753Z 00000KT 10SM CLR 08/06 A3008 RMK AO2 SLP181
T00780061


USA.gov is the U.S. government's official web portal to all federal, state and local government web resources and services.